Pagrindinis puslapis
METAR-TAF:

METAR-TAF

Oro uostai :

Montauk, Niujorko valstija, Jungtinės Amerikos Valstijos

platuma: 41-04-23N, ilguma: 071-55-24W, Aukštis: 2 m

Dabartinis oras

Ataskaita buvo paskelbta 20 minutes, ne 06:54 UTC
Vėjas 18 kt iš Vakarų su gūsio iki 28 kt
Temperatūra 1°C
Drėgmė 44%
Slėgis 1008 hPa

METAR: KMTP 280654Z AUTO 26018G28KT 01/M10 A2978 RMK AO1 PK WND 28031/0639 SLP084 T00061100

Laikas: 02:14 (07:14 UTC)


TAF: trūkstamas

Orai ataskaitas ir orų prognozės (METAR, TAF).

turimą stotys yra geltonos ir raudonos taškus žemėlapyje.

Perkelti pele per norėdami pamatyti stoties vardą.

Tada spustelėkite, norėdami matyti oro stebėjimo ir prognozės.

Norėdami pakeisti žemėlapį: spustelėkite ant žalios mygtukų su juodo kryžiaus žemyn,; žalią mygtuką su brūkšneliu, jei norite nutolinti; arba žalių rodyklių gretimoms žemėlapius.


METAR-TAF: